Time;durP1;ratioP1;P1;durP2;ratioP2;P2;SDS_P1;SDS_P2;PMS_P1;PMS_P2;Temp;Humidity;BMP_temperature;BMP_pressure;BME280_temperature;BME280_humidity;BME280_pressure;Samples;Min_cycle;Max_cycle;Signal;HPM_P1;HPM_P2
2022/09/30 04:13:07;;;;;;;48.83;24.75;;;;;;;11.43;100.00;99434.84;5553239;32;272303;-85
2022/09/30 04:16:10;;;;;;;48.38;25.83;;;;;;;11.39;100.00;99436.00;5542238;32;35136;-85
2022/09/30 04:19:14;;;;;;;44.30;24.00;;;;;;;11.42;100.00;99430.50;5542182;32;33975;-86
2022/09/30 04:22:17;;;;;;;37.67;21.98;;;;;;;11.42;100.00;99431.34;5542393;32;34386;-88
2022/09/30 04:25:19;;;;;;;34.38;20.17;;;;;;;11.51;100.00;99445.78;5542860;32;33487;-85
2022/09/30 04:28:22;;;;;;;35.08;21.40;;;;;;;11.58;100.00;99462.16;5543592;32;35489;-85
2022/09/30 04:31:24;;;;;;;32.05;19.02;;;;;;;11.55;100.00;99451.75;5543498;32;33801;-85
2022/09/30 04:34:27;;;;;;;25.73;17.23;;;;;;;11.55;100.00;99452.59;5543347;32;34674;-85
2022/09/30 04:37:30;;;;;;;29.83;18.40;;;;;;;11.59;100.00;99451.44;5543332;32;34016;-85
2022/09/30 04:40:37;;;;;;;31.42;17.73;;;;;;;11.58;100.00;99455.03;5543030;32;34735;-85
2022/09/30 04:43:45;;;;;;;26.92;17.00;;;;;;;11.62;100.00;99455.66;5543846;32;34604;-88
2022/09/30 04:46:50;;;;;;;27.83;16.95;;;;;;;11.64;100.00;99453.78;5543920;32;34415;-85
2022/09/30 04:49:52;;;;;;;22.40;15.90;;;;;;;11.69;100.00;99456.09;5543116;32;34568;-87
2022/09/30 04:52:56;;;;;;;22.42;15.35;;;;;;;11.81;100.00;99462.38;5542933;32;34437;-85
2022/09/30 04:56:00;;;;;;;21.45;15.00;;;;;;;11.78;100.00;99471.44;5543940;32;33968;-86
2022/09/30 04:59:03;;;;;;;25.23;14.48;;;;;;;11.80;100.00;99465.97;5552336;32;34882;-85
2022/09/30 05:02:05;;;;;;;20.70;14.43;;;;;;;11.84;100.00;99484.28;5558348;32;34686;-85
2022/09/30 05:05:08;;;;;;;21.73;14.93;;;;;;;11.88;100.00;99481.41;5554151;32;35117;-84
2022/09/30 05:08:11;;;;;;;22.42;15.57;;;;;;;11.96;100.00;99495.84;5543361;32;33800;-84
2022/09/30 05:11:17;;;;;;;21.73;15.43;;;;;;;12.03;100.00;99493.62;5542997;32;33925;-84
2022/09/30 05:14:19;;;;;;;22.35;15.23;;;;;;;11.92;100.00;99491.69;5543330;32;33751;-84
2022/09/30 05:17:22;;;;;;;22.23;15.32;;;;;;;11.99;100.00;99493.00;5543413;32;33406;-85
2022/09/30 05:20:25;;;;;;;20.75;14.30;;;;;;;11.95;100.00;99483.53;5543204;32;33731;-85
2022/09/30 05:23:29;;;;;;;20.62;14.55;;;;;;;11.96;100.00;99484.34;5533588;32;32626;-84
2022/09/30 05:26:32;;;;;;;20.55;14.02;;;;;;;12.04;100.00;99492.69;5529949;32;33662;-84
2022/09/30 05:29:35;;;;;;;19.98;14.25;;;;;;;12.05;100.00;99491.75;5528660;32;32559;-84
2022/09/30 05:32:38;;;;;;;19.08;13.98;;;;;;;12.15;100.00;99491.06;5524692;32;33187;-84
2022/09/30 05:35:42;;;;;;;21.73;14.02;;;;;;;12.21;100.00;99491.50;5526996;32;33665;-85
2022/09/30 05:38:45;;;;;;;20.02;14.20;;;;;;;12.25;100.00;99494.78;5530051;32;33856;-85
2022/09/30 05:41:47;;;;;;;18.30;13.98;;;;;;;12.21;100.00;99491.50;5523936;32;34410;-89
2022/09/30 05:44:50;;;;;;;18.95;14.35;;;;;;;12.32;100.00;99498.72;5530402;32;32559;-89
2022/09/30 05:47:54;;;;;;;18.92;13.15;;;;;;;12.37;100.00;99498.41;5526494;32;34361;-89
2022/09/30 05:50:59;;;;;;;20.58;13.50;;;;;;;12.37;100.00;99503.72;5519018;32;33880;-90
2022/09/30 05:54:02;;;;;;;18.75;13.60;;;;;;;12.39;100.00;99504.44;5524035;32;33840;-85
2022/09/30 05:57:06;;;;;;;19.30;13.65;;;;;;;12.40;100.00;99506.16;5530041;32;33976;-85
2022/09/30 06:00:10;;;;;;;17.20;13.38;;;;;;;12.45;100.00;99505.81;5511664;32;34047;-86
2022/09/30 06:03:13;;;;;;;23.35;14.90;;;;;;;12.51;100.00;99514.22;5515383;32;34107;-87
2022/09/30 06:06:17;;;;;;;21.08;14.60;;;;;;;12.39;100.00;99509.78;5524303;32;34175;-87
2022/09/30 06:09:20;;;;;;;20.45;14.48;;;;;;;12.40;100.00;99506.16;5515345;32;34206;-86
2022/09/30 06:12:25;;;;;;;18.42;14.05;;;;;;;12.52;100.00;99507.94;5510301;32;34545;-86
2022/09/30 06:15:27;;;;;;;19.48;13.98;;;;;;;12.47;100.00;99514.56;5527217;32;34070;-88
2022/09/30 06:18:30;;;;;;;21.00;15.38;;;;;;;12.43;100.00;99513.06;5524669;32;32820;-88
2022/09/30 06:21:32;;;;;;;18.75;13.98;;;;;;;12.45;100.00;99505.81;5513533;32;34133;-89
2022/09/30 06:24:36;;;;;;;21.42;13.93;;;;;;;12.44;100.00;99514.75;5529402;32;34565;-88
2022/09/30 06:27:38;;;;;;;19.33;14.40;;;;;;;12.44;100.00;99514.75;5529099;32;33828;-89
2022/09/30 06:30:43;;;;;;;20.50;14.02;;;;;;;12.54;100.00;99518.47;5521974;32;33883;-88
2022/09/30 06:33:46;;;;;;;20.17;14.85;;;;;;;12.60;100.00;99523.34;5531876;32;33852;-89
2022/09/30 06:36:49;;;;;;;24.15;15.18;;;;;;;12.52;100.00;99529.22;5578056;26;32753;-89
2022/09/30 09:13:52;;;;;;;16.73;12.52;;;;;;;13.74;100.00;99689.13;5532461;26;33326;-89
2022/09/30 09:17:02;;;;;;;14.50;12.68;;;;;;;13.85;100.00;99684.81;5516496;32;34520;-88
2022/09/30 09:20:15;;;;;;;12.57;11.27;;;;;;;13.80;100.00;99689.63;5509044;32;32480;-90
2022/09/30 09:27:17;;;;;;;14.00;12.40;;;;;;;14.44;100.00;99696.41;5044085;26;20124;-91
2022/09/30 09:30:22;;;;;;;13.35;11.00;;;;;;;14.85;100.00;99702.19;5581742;31;34252;-88
2022/09/30 09:33:38;;;;;;;11.55;10.32;;;;;;;15.34;100.00;99702.75;5634472;26;34314;-90
2022/09/30 09:36:53;;;;;;;10.68;9.20;;;;;;;15.49;100.00;99708.69;5581822;26;34521;-89
2022/09/30 09:40:03;;;;;;;10.30;8.38;;;;;;;15.21;100.00;99716.28;5571188;31;35360;-87
2022/09/30 09:43:12;;;;;;;8.73;7.85;;;;;;;15.34;100.00;99718.78;5574314;32;33931;-88
2022/09/30 09:46:26;;;;;;;8.90;7.53;;;;;;;15.40;100.00;99722.81;5568565;32;34584;-88
2022/09/30 09:49:38;;;;;;;8.77;7.40;;;;;;;15.57;100.00;99728.59;5555840;32;32391;-88
2022/09/30 09:52:56;;;;;;;7.37;6.68;;;;;;;15.55;100.00;99717.19;5551370;32;33825;-86
2022/09/30 09:56:01;;;;;;;6.32;5.72;;;;;;;15.31;100.00;99727.06;5568215;31;35154;-91
2022/09/30 09:59:16;;;;;;;6.95;6.25;;;;;;;15.60;100.00;99728.34;5570927;32;35173;-88
2022/09/30 10:02:31;;;;;;;7.65;5.30;;;;;;;15.93;100.00;99726.59;5544907;32;33640;-87
2022/09/30 10:05:41;;;;;;;5.70;5.20;;;;;;;15.93;100.00;99742.63;5539395;32;33481;-91
2022/09/30 10:08:55;;;;;;;5.68;5.18;;;;;;;16.00;100.00;99738.47;5544984;32;32492;-89
2022/09/30 10:12:04;;;;;;;7.47;4.62;;;;;;;16.14;100.00;99740.00;5557448;32;33976;-88
2022/09/30 10:15:25;;;;;;;5.28;4.78;;;;;;;15.84;100.00;99738.84;5539582;32;33822;-88
2022/09/30 10:18:31;;;;;;;4.53;4.12;;;;;;;15.43;100.00;99749.28;5552725;32;34339;-88
2022/09/30 10:21:34;;;;;;;5.18;4.40;;;;;;;15.53;100.00;99741.34;5564931;31;34785;-87
2022/09/30 10:24:38;;;;;;;4.20;3.80;;;;;;;15.62;100.00;99737.09;5562885;31;34193;-88
2022/09/30 10:27:59;;;;;;;3.20;2.97;;;;;;;15.60;100.00;99739.06;5567874;31;33506;-86
2022/09/30 10:31:13;;;;;;;3.70;3.00;;;;;;;15.57;100.00;99745.50;5559699;31;33953;-86
2022/09/30 10:34:35;;;;;;;4.72;3.30;;;;;;;15.49;100.00;99748.78;5555138;32;33202;-86
2022/09/30 10:37:48;;;;;;;3.30;3.10;;;;;;;15.47;100.00;99756.09;5567350;32;33990;-86
2022/09/30 10:40:53;;;;;;;3.53;3.22;;;;;;;15.41;100.00;99761.91;5566082;31;34523;-86
2022/09/30 10:43:59;;;;;;;3.67;3.20;;;;;;;15.38;100.00;99772.84;5566563;32;34514;-86
2022/09/30 10:47:02;;;;;;;4.80;3.40;;;;;;;15.33;100.00;99789.25;5566468;32;34285;-86
2022/09/30 10:50:11;;;;;;;4.72;3.12;;;;;;;15.22;100.00;99784.75;5562600;32;34102;-86
2022/09/30 10:53:22;;;;;;;3.47;3.17;;;;;;;15.24;100.00;99789.97;5557407;32;33713;-89
2022/09/30 10:56:38;;;;;;;4.50;3.50;;;;;;;15.33;100.00;99786.56;5564206;32;34676;-89
2022/09/30 10:59:45;;;;;;;3.08;2.87;;;;;;;15.45;100.00;99779.37;5590256;26;34325;-90
2022/09/30 11:06:55;;;;;;;2.80;2.60;;;;;;;15.73;100.00;99800.38;986936;26;20418;-90
2022/09/30 11:10:14;;;;;;;3.35;2.30;;;;;;;15.72;100.00;99804.03;5541198;32;33823;-91
2022/09/30 11:13:26;;;;;;;3.00;2.80;;;;;;;15.85;100.00;99818.09;5558390;26;32987;-91
2022/09/30 11:20:51;;;;;;;2.95;2.50;;;;;;;15.82;100.00;99833.53;4093208;29;20108;-90
2022/09/30 11:38:59;;;;;;;2.30;2.10;;;;;;;15.81;100.00;99858.59;5395519;30;20111;-90
2022/09/30 11:42:10;;;;;;;1.85;1.75;;;;;;;16.21;100.00;99870.59;5553429;32;33720;-89
2022/09/30 11:45:13;;;;;;;2.95;1.90;;;;;;;16.34;100.00;99863.25;5552219;32;33761;-88
2022/09/30 11:48:33;;;;;;;1.40;1.30;;;;;;;16.35;100.00;99872.97;5554900;31;34806;-87
2022/09/30 11:51:46;;;;;;;2.70;1.70;;;;;;;16.36;100.00;99884.56;5561898;32;34680;-87
2022/09/30 11:54:57;;;;;;;1.83;1.60;;;;;;;16.27;100.00;99899.53;5563434;32;34408;-87
2022/09/30 11:58:04;;;;;;;1.87;1.52;;;;;;;16.36;100.00;99897.94;5541950;31;33238;-87
2022/09/30 12:01:38;;;;;;;1.75;1.42;;;;;;;16.72;100.00;99895.88;5547590;26;33706;-92
2022/09/30 12:04:44;;;;;;;1.70;1.60;;;;;;;17.42;100.00;99906.12;5521373;32;33834;-86
2022/09/30 12:07:54;;;;;;;1.23;1.23;;;;;;;17.63;100.00;99915.97;5534718;32;34420;-86
2022/09/30 12:11:06;;;;;;;1.50;1.40;;;;;;;17.20;100.00;99924.03;5512679;32;33837;-87
2022/09/30 12:14:39;;;;;;;3.12;1.35;;;;;;;17.34;100.00;99930.03;5508410;32;32711;-87
2022/09/30 12:17:47;;;;;;;3.42;1.90;;;;;;;18.20;100.00;99930.75;5490930;32;34372;-87
2022/09/30 12:20:59;;;;;;;2.40;1.30;;;;;;;18.43;100.00;99934.06;5525677;32;33707;-88
2022/09/30 12:24:14;;;;;;;1.55;1.45;;;;;;;18.96;100.00;99932.81;5531829;32;34011;-89
2022/09/30 12:27:26;;;;;;;1.05;0.90;;;;;;;19.17;100.00;99939.94;5523933;32;34123;-89
2022/09/30 12:30:29;;;;;;;1.02;1.02;;;;;;;19.03;100.00;99941.22;5557308;26;34339;-88
2022/09/30 12:33:58;;;;;;;1.37;1.25;;;;;;;19.03;100.00;99951.97;5568458;32;34519;-88
2022/09/30 12:37:07;;;;;;;0.90;0.90;;;;;;;18.56;100.00;99956.13;5549819;32;35133;-90
2022/09/30 12:40:39;;;;;;;1.05;1.05;;;;;;;18.23;100.00;99968.91;5564868;31;35058;-89
2022/09/30 12:44:04;;;;;;;0.75;0.75;;;;;;;18.20;100.00;99962.97;5569041;32;35108;-88
2022/09/30 12:47:14;;;;;;;2.45;1.08;;;;;;;18.56;100.00;99964.19;5551208;31;32689;-88
2022/09/30 12:50:21;;;;;;;1.60;1.50;;;;;;;18.04;100.00;99965.16;5554272;32;32424;-88
2022/09/30 12:53:30;;;;;;;2.03;1.00;;;;;;;17.87;100.00;99963.09;5569150;32;34548;-88
2022/09/30 12:56:34;;;;;;;1.10;1.00;;;;;;;18.21;100.00;99967.34;5570021;31;33906;-90
2022/09/30 12:59:45;;;;;;;1.33;1.23;;;;;;;18.29;100.00;99973.75;5571659;32;33876;-90
2022/09/30 13:02:55;;;;;;;1.65;1.10;;;;;;;18.33;100.00;99987.72;5551341;32;33783;-90
2022/09/30 13:06:05;;;;;;;1.85;1.20;;;;;;;18.70;100.00;99988.94;5557524;31;34782;-91
2022/09/30 13:09:28;;;;;;;1.05;1.02;;;;;;;18.50;100.00;99986.22;5538089;32;32614;-89
2022/09/30 13:12:45;;;;;;;1.20;1.10;;;;;;;18.68;99.37;99993.63;5541857;32;33733;-90
2022/09/30 13:19:35;;;;;;;1.83;1.58;;;;;;;17.69;100.00;99992.38;4878133;30;20086;-90
2022/09/30 13:22:38;;;;;;;1.30;1.20;;;;;;;17.88;100.00;99991.59;5633873;26;33924;-89
2022/09/30 13:25:52;;;;;;;3.05;1.70;;;;;;;18.29;100.00;99995.22;5527910;32;32383;-90
2022/09/30 13:28:58;;;;;;;2.45;1.55;;;;;;;18.44;98.98;99995.69;5539229;32;34063;-90
2022/09/30 13:32:03;;;;;;;2.05;1.60;;;;;;;18.21;99.28;100011.16;5608746;26;32842;-90
2022/09/30 13:35:40;;;;;;;1.60;1.50;;;;;;;18.48;98.74;100011.50;5558073;32;33686;-90
2022/09/30 13:38:43;;;;;;;1.60;1.50;;;;;;;18.00;100.00;100028.09;5562259;32;34005;-88
2022/09/30 13:42:12;;;;;;;1.92;1.65;;;;;;;18.09;100.00;100042.59;5564554;32;33073;-88
2022/09/30 13:45:30;;;;;;;4.18;1.87;;;;;;;18.65;98.08;100053.84;5565506;32;33426;-88
2022/09/30 13:48:38;;;;;;;2.72;1.80;;;;;;;19.05;96.88;100051.28;5586377;26;34790;-88
2022/09/30 13:51:44;;;;;;;3.35;2.10;;;;;;;19.17;92.78;100055.53;5584084;26;34764;-88
2022/09/30 13:54:50;;;;;;;2.37;2.00;;;;;;;18.98;95.40;100062.56;5602042;26;34852;-89
2022/09/30 13:58:32;;;;;;;2.00;1.90;;;;;;;18.90;94.13;100059.69;5557760;32;33993;-89
2022/09/30 14:01:36;;;;;;;2.87;1.92;;;;;;;18.80;95.71;100050.78;5541421;32;32974;-88
2022/09/30 14:05:00;;;;;;;2.10;2.00;;;;;;;18.67;96.75;100054.56;5564823;31;33807;-88
2022/09/30 14:08:31;;;;;;;2.40;2.20;;;;;;;18.17;100.00;100061.56;5554089;32;34768;-87
2022/09/30 14:12:15;;;;;;;2.10;2.00;;;;;;;17.78;100.00;100054.13;5528778;32;33534;-87
2022/09/30 14:15:41;;;;;;;3.05;1.90;;;;;;;18.22;99.60;100055.81;5554797;32;34366;-87
2022/09/30 14:18:57;;;;;;;2.15;1.95;;;;;;;18.32;97.57;100043.25;5564043;32;34248;-87
2022/09/30 14:22:05;;;;;;;1.92;1.83;;;;;;;17.79;100.00;100044.22;5539774;32;33363;-91
2022/09/30 14:25:14;;;;;;;2.20;2.00;;;;;;;18.00;99.98;100046.06;5551911;32;32273;-87
2022/09/30 14:28:37;;;;;;;2.17;2.00;;;;;;;17.90;100.00;100051.34;5638530;26;34184;-88
2022/09/30 14:31:45;;;;;;;1.95;1.77;;;;;;;18.17;99.45;100052.66;5485682;32;32276;-87
2022/09/30 14:34:48;;;;;;;2.90;1.70;;;;;;;17.78;99.52;100051.44;5498878;32;33811;-87
2022/09/30 14:37:58;;;;;;;1.90;1.80;;;;;;;17.96;100.00;100058.91;5559115;26;34777;-91
2022/09/30 14:41:09;;;;;;;2.62;2.00;;;;;;;17.65;99.91;100059.69;5534013;32;33425;-91
2022/09/30 14:44:16;;;;;;;1.85;1.75;;;;;;;17.79;100.00;100060.31;5536493;32;34082;-88
2022/09/30 14:47:21;;;;;;;2.10;1.92;;;;;;;17.86;100.00;100060.66;5533628;32;34333;-88
2022/09/30 14:50:34;;;;;;;1.67;1.55;;;;;;;17.59;100.00;100059.31;5529459;32;34803;-88
2022/09/30 14:53:52;;;;;;;2.62;1.90;;;;;;;17.35;100.00;100060.44;5529137;32;34032;-87
2022/09/30 14:56:57;;;;;;;1.90;1.80;;;;;;;16.96;100.00;100052.84;5539845;32;33898;-87
2022/09/30 15:00:20;;;;;;;2.25;1.83;;;;;;;17.04;100.00;100054.94;5517301;32;33179;-88
2022/09/30 15:03:24;;;;;;;2.22;2.10;;;;;;;17.20;100.00;100060.72;5514946;32;32793;-88
2022/09/30 15:06:32;;;;;;;2.08;1.98;;;;;;;17.22;100.00;100069.50;5528633;32;34192;-87
